Página principal
METAR-TAF:

METAR-TAF

Aeroportos :

Paris-Charles De Gaulle, França

Aeroporto de Paris-Charles de Gaulle

latitude: 49-01N, longitude: 002-32E, altura: 118 m

Observação actual do tempo

O boletim foi feito há 29 minutos, às 10:30 UTC
Vento 8 kt de sul
Temperatura 18°C
Humidade 64%
Pressão 1013 hPa
Visibilidade 10 km ou mais
sem nuvens abaixo de 1500 metros e sem cumulonimbus

METAR: LFPG 181030Z 18008KT CAVOK 18/11 Q1013 NOSIG

Hora: 12:59 (10:59 UTC)

Previsão

O boletim foi feito há 5 horas e 59 minutos, às 05:00 UTC
Previsão válida de 18 às 06 UTC a 19 às 12 UTC
Vento 8 kt de sul
Visibilidade 10 km ou mais
sem nuvens abaixo de 1500 metros e sem cumulonimbus

TAF: LFPG 180500Z 1806/1912 18008KT CAVOK TX21/1815Z TN12/1906Z

Observações e previsões do tempo de mais de 4000 aeroportos (mensagens METAR e TAF).

As estações disponíveis são os pontos amarelos e vermelhos sobre o mapa.

Mova o rato sobre o mapa para ver o nome da estação.

Depois clique no ponto para visualizar as observações e previsões meteorológicas.

Para alterar o mapa : clique nos botões verdes com uma cruz preta para aumentar o zoom; no botão verde com uma pitada de zoom; ou nas setas verdes para mapas adjacentes.


METAR-TAF: